createdAt,value
2018-06-04T00:00:39.707Z,30.60
2018-06-04T00:01:39.696Z,29.50
2018-06-04T00:02:39.679Z,33.30
2018-06-04T00:03:39.662Z,31.10
2018-06-04T00:04:39.664Z,34.90
2018-06-04T00:05:39.638Z,34.10
2018-06-04T00:06:39.619Z,34.80
2018-06-04T00:07:39.601Z,35.50
2018-06-04T00:08:39.587Z,29.50
2018-06-04T00:09:39.573Z,35.50
2018-06-04T00:10:39.565Z,33.40
2018-06-04T00:11:39.544Z,31.40
2018-06-04T00:12:39.526Z,32.20
2018-06-04T00:13:39.511Z,32.70
2018-06-04T00:14:39.495Z,31.10
2018-06-04T00:15:39.489Z,36.10
2018-06-04T00:16:39.471Z,33.90
2018-06-04T00:17:39.449Z,33.50
2018-06-04T00:18:39.432Z,32.00
2018-06-04T00:19:39.418Z,30.40
2018-06-04T00:20:39.416Z,30.10
2018-06-04T00:21:39.393Z,34.20
2018-06-04T00:22:39.371Z,31.70
2018-06-04T00:23:39.360Z,29.80
2018-06-04T00:24:39.342Z,29.30
2018-06-04T00:25:39.611Z,30.20
2018-06-04T00:26:39.309Z,30.80
2018-06-04T00:27:39.295Z,28.20
2018-06-04T00:28:39.281Z,27.10
2018-06-04T00:29:39.264Z,27.50
2018-06-04T00:30:39.249Z,28.20
2018-06-04T00:31:39.248Z,29.00
2018-06-04T00:32:39.220Z,29.10
2018-06-04T00:33:39.205Z,30.90
2018-06-04T00:34:39.188Z,29.30
2018-06-04T00:35:39.175Z,33.50
2018-06-04T00:36:39.160Z,29.40
2018-06-04T00:37:39.155Z,32.00
2018-06-04T00:38:39.123Z,32.80
2018-06-04T00:39:39.108Z,31.70
2018-06-04T00:40:39.091Z,33.30
2018-06-04T00:41:39.079Z,32.60
2018-06-04T00:42:39.071Z,35.20
2018-06-04T00:43:39.043Z,35.10
2018-06-04T00:44:39.033Z,38.60
2018-06-04T00:45:39.017Z,42.40
2018-06-04T00:46:39.002Z,36.10
2018-06-04T00:47:39.002Z,44.70
2018-06-04T00:48:38.970Z,44.90
2018-06-04T00:49:38.954Z,46.30
2018-06-04T00:50:38.936Z,45.20
2018-06-04T00:51:38.924Z,45.50
2018-06-04T00:52:38.948Z,44.00
2018-06-04T00:53:39.163Z,44.10
2018-06-04T00:54:38.876Z,50.20
2018-06-04T00:55:38.857Z,52.80
2018-06-04T00:56:38.846Z,60.40
2018-06-04T00:57:38.826Z,62.20
2018-06-04T00:58:38.811Z,48.80
2018-06-04T00:59:38.805Z,39.90
2018-06-04T01:00:38.782Z,43.30
2018-06-04T01:01:38.765Z,44.50
2018-06-04T01:02:38.756Z,40.80
2018-06-04T01:03:38.735Z,44.00
2018-06-04T01:04:38.725Z,41.60
2018-06-04T01:05:38.703Z,38.50
2018-06-04T01:06:38.685Z,39.80
2018-06-04T01:07:38.671Z,40.10
2018-06-04T01:08:38.654Z,34.80
2018-06-04T01:09:38.651Z,34.30
2018-06-04T01:10:38.622Z,40.70
2018-06-04T01:11:38.607Z,41.80
2018-06-04T01:12:38.593Z,40.40
2018-06-04T01:13:38.577Z,41.60
2018-06-04T01:14:38.592Z,43.70
2018-06-04T01:15:38.548Z,42.40
2018-06-04T01:16:38.528Z,43.80
2018-06-04T01:17:38.513Z,41.90
2018-06-04T01:18:38.496Z,40.20
2018-06-04T01:19:38.484Z,41.30
2018-06-04T01:20:38.752Z,42.80
2018-06-04T01:21:38.451Z,42.80
2018-06-04T01:22:38.434Z,42.00
2018-06-04T01:23:38.420Z,44.50
2018-06-04T01:24:38.400Z,38.90
2018-06-04T01:25:38.387Z,47.30
2018-06-04T01:26:38.381Z,46.80
2018-06-04T01:27:38.357Z,46.90
2018-06-04T01:28:38.338Z,40.40
2018-06-04T01:29:38.323Z,47.50
2018-06-04T01:30:38.307Z,42.10
2018-06-04T01:31:38.303Z,51.60
2018-06-04T01:32:38.275Z,50.70
2018-06-04T01:33:38.269Z,46.30
2018-06-04T01:34:38.242Z,49.10
2018-06-04T01:35:38.231Z,45.00
2018-06-04T01:36:38.221Z,47.90
2018-06-04T01:37:38.195Z,42.70
2018-06-04T01:38:38.184Z,40.70
2018-06-04T01:39:38.166Z,37.90
2018-06-04T01:40:38.146Z,33.60
2018-06-04T01:41:38.145Z,33.80
2018-06-04T01:42:38.115Z,37.60
2018-06-04T01:43:38.101Z,41.80
2018-06-04T01:44:38.084Z,39.00
2018-06-04T01:45:38.069Z,40.20
2018-06-04T01:46:38.054Z,44.60
2018-06-04T01:47:38.050Z,45.60
2018-06-04T01:48:38.020Z,50.00
2018-06-04T01:49:38.004Z,47.80
2018-06-04T01:50:37.986Z,46.50
2018-06-04T01:51:37.972Z,48.20
2018-06-04T01:52:37.954Z,47.30
2018-06-04T01:53:37.952Z,46.00
2018-06-04T01:54:37.923Z,39.20
2018-06-04T01:55:37.907Z,42.40
2018-06-04T01:56:37.892Z,39.60
2018-06-04T01:57:37.878Z,41.10
2018-06-04T01:58:37.875Z,41.10
2018-06-04T01:59:37.843Z,43.00
2018-06-04T02:00:37.826Z,44.60
2018-06-04T02:01:37.810Z,45.90
2018-06-04T02:02:37.794Z,47.20
2018-06-04T02:03:37.778Z,51.20
2018-06-04T02:04:37.771Z,53.30
2018-06-04T02:05:37.747Z,53.10
2018-06-04T02:06:37.732Z,46.80
2018-06-04T02:07:37.715Z,49.40
2018-06-04T02:08:37.699Z,39.70
2018-06-04T02:09:37.954Z,47.90
2018-06-04T02:10:37.665Z,47.50
2018-06-04T02:11:37.651Z,43.30
2018-06-04T02:12:37.635Z,44.90
2018-06-04T02:13:37.617Z,37.40
2018-06-04T02:14:37.603Z,40.80
2018-06-04T02:15:37.598Z,39.80
2018-06-04T02:16:37.572Z,40.20
2018-06-04T02:17:37.554Z,41.20
2018-06-04T02:18:37.538Z,33.80
2018-06-04T02:19:37.521Z,35.30
2018-06-04T02:20:37.771Z,40.20
2018-06-04T02:21:37.490Z,38.00
2018-06-04T02:22:37.470Z,38.00
2018-06-04T02:23:37.455Z,37.30
2018-06-04T02:24:37.443Z,35.60
2018-06-04T02:25:37.423Z,39.40
2018-06-04T02:26:37.428Z,38.50
2018-06-04T02:27:37.388Z,41.30
2018-06-04T02:28:37.375Z,41.30
2018-06-04T02:29:37.358Z,42.00
2018-06-04T02:30:37.343Z,45.60
2018-06-04T02:31:37.335Z,48.20
2018-06-04T02:32:37.308Z,41.40
2018-06-04T02:33:37.292Z,44.30
2018-06-04T02:34:37.278Z,46.70
2018-06-04T02:35:37.260Z,48.60
2018-06-04T02:36:37.257Z,47.10
2018-06-04T02:37:37.227Z,51.00
2018-06-04T02:38:37.209Z,40.10
2018-06-04T02:39:37.193Z,41.60
2018-06-04T02:40:37.197Z,42.30
2018-06-04T02:41:37.170Z,44.00
2018-06-04T02:42:37.155Z,42.40
2018-06-04T02:43:37.132Z,37.40
2018-06-04T02:44:37.112Z,38.10
2018-06-04T02:45:37.107Z,40.20
2018-06-04T02:46:37.079Z,39.60
2018-06-04T02:47:37.077Z,43.00
2018-06-04T02:48:37.045Z,39.60
2018-06-04T02:49:37.031Z,36.90
2018-06-04T02:50:37.011Z,36.70
2018-06-04T02:51:36.997Z,35.20
2018-06-04T02:52:36.981Z,38.20
2018-06-04T02:53:36.976Z,40.00
2018-06-04T02:54:36.954Z,40.20
2018-06-04T02:55:36.933Z,37.60
2018-06-04T02:56:36.920Z,36.80
2018-06-04T02:57:36.897Z,34.50
2018-06-04T02:58:36.898Z,40.00
2018-06-04T02:59:36.865Z,40.60
2018-06-04T03:00:36.848Z,33.60
2018-06-04T03:01:36.835Z,40.90
2018-06-04T03:02:36.813Z,36.20
2018-06-04T03:03:36.816Z,44.00
2018-06-04T03:04:36.781Z,47.10
2018-06-04T03:05:36.767Z,55.80
2018-06-04T03:06:36.748Z,45.20
2018-06-04T03:07:36.733Z,46.70
2018-06-04T03:08:36.716Z,52.60
2018-06-04T03:09:36.710Z,50.30
2018-06-04T03:10:36.684Z,46.50
2018-06-04T03:11:36.669Z,45.60
2018-06-04T03:12:36.656Z,44.20
2018-06-04T03:13:36.637Z,40.50
2018-06-04T03:14:36.635Z,39.10
2018-06-04T03:15:36.601Z,40.80
2018-06-04T03:16:36.588Z,41.50
2018-06-04T03:17:36.570Z,45.80
2018-06-04T03:18:36.561Z,59.60
2018-06-04T03:19:36.534Z,57.10
2018-06-04T03:20:36.571Z,118.50
2018-06-04T03:21:36.505Z,167.40
2018-06-04T03:22:36.493Z,133.80
2018-06-04T03:23:36.466Z,155.40
2018-06-04T03:24:36.445Z,108.50
2018-06-04T03:25:36.444Z,83.10
2018-06-04T03:26:36.414Z,54.80
2018-06-04T03:27:36.401Z,56.60
2018-06-04T03:28:36.379Z,57.50
2018-06-04T03:29:36.371Z,60.30
2018-06-04T03:30:36.382Z,60.70
2018-06-04T03:31:36.349Z,60.00
2018-06-04T03:32:36.317Z,55.20
2018-06-04T03:33:36.309Z,57.00
2018-06-04T03:34:36.284Z,50.50
2018-06-04T03:35:36.269Z,51.50
2018-06-04T03:36:36.263Z,46.90
2018-06-04T03:37:36.235Z,42.00
2018-06-04T03:38:36.218Z,44.00
2018-06-04T03:39:36.204Z,44.90
2018-06-04T03:40:36.185Z,42.60
2018-06-04T03:41:36.185Z,50.40
2018-06-04T03:42:36.150Z,45.50
2018-06-04T03:43:36.136Z,52.60
2018-06-04T03:44:36.119Z,45.90
2018-06-04T03:45:36.102Z,43.20
2018-06-04T03:46:36.084Z,47.80
2018-06-04T03:47:36.078Z,44.10
2018-06-04T03:48:36.052Z,44.50
2018-06-04T03:49:36.036Z,44.30
2018-06-04T03:50:36.021Z,44.20
2018-06-04T03:51:36.002Z,44.20
2018-06-04T03:52:35.994Z,44.90
2018-06-04T03:53:35.968Z,44.50
2018-06-04T03:54:35.953Z,43.20
2018-06-04T03:55:35.933Z,41.30
2018-06-04T03:56:35.917Z,36.50
2018-06-04T03:57:35.922Z,43.60
2018-06-04T03:58:35.883Z,42.60
2018-06-04T03:59:35.868Z,52.90
2018-06-04T04:00:35.849Z,49.30
2018-06-04T04:01:35.839Z,45.00
2018-06-04T04:02:35.818Z,58.80
2018-06-04T04:03:35.811Z,52.70
2018-06-04T04:04:35.783Z,51.90
2018-06-04T04:05:35.771Z,51.10
2018-06-04T04:06:35.749Z,59.10
2018-06-04T04:07:35.737Z,59.40
2018-06-04T04:08:35.732Z,49.80
2018-06-04T04:09:35.699Z,51.20
2018-06-04T04:10:35.684Z,46.70
2018-06-04T04:11:35.670Z,49.70
2018-06-04T04:12:35.652Z,44.60
2018-06-04T04:13:35.636Z,44.60
2018-06-04T04:14:35.638Z,43.50
2018-06-04T04:15:35.605Z,53.30
2018-06-04T04:16:35.586Z,52.60
2018-06-04T04:17:35.569Z,47.20
2018-06-04T04:18:35.550Z,44.40
2018-06-04T04:19:35.535Z,41.80
2018-06-04T04:20:35.535Z,43.70
2018-06-04T04:21:35.502Z,45.80
2018-06-04T04:22:35.487Z,41.80
2018-06-04T04:23:35.470Z,41.40
2018-06-04T04:24:35.451Z,43.10
2018-06-04T04:25:35.447Z,41.50
2018-06-04T04:26:35.419Z,40.60
2018-06-04T04:27:35.404Z,42.40
2018-06-04T04:28:35.392Z,35.90
2018-06-04T04:29:35.370Z,40.50
2018-06-04T04:30:35.367Z,41.00
2018-06-04T04:31:35.335Z,41.50
2018-06-04T04:32:35.319Z,35.70
2018-06-04T04:33:35.304Z,38.00
2018-06-04T04:34:35.288Z,38.50
2018-06-04T04:35:35.271Z,38.70
2018-06-04T04:36:35.272Z,42.10
2018-06-04T04:37:35.238Z,41.90
2018-06-04T04:38:35.220Z,38.80
2018-06-04T04:39:35.209Z,43.00
2018-06-04T04:40:35.189Z,34.70
2018-06-04T04:41:35.178Z,36.50
2018-06-04T04:42:35.166Z,37.50
2018-06-04T04:43:35.136Z,37.00
2018-06-04T04:44:35.120Z,36.40
2018-06-04T04:45:35.107Z,33.50
2018-06-04T04:46:35.139Z,40.70
2018-06-04T04:47:35.083Z,41.50
2018-06-04T04:48:35.057Z,44.70
2018-06-04T04:49:35.041Z,43.30
2018-06-04T04:50:35.028Z,43.90
2018-06-04T04:51:35.009Z,44.70
2018-06-04T04:52:35.002Z,52.10
2018-06-04T04:53:34.979Z,45.30
2018-06-04T04:54:34.958Z,47.50
2018-06-04T04:55:34.945Z,47.10
2018-06-04T04:56:34.927Z,46.00
2018-06-04T04:57:34.942Z,41.20
2018-06-04T04:58:34.898Z,42.30
2018-06-04T04:59:34.928Z,51.60
2018-06-04T05:00:34.861Z,43.70
2018-06-04T05:01:34.849Z,36.60
2018-06-04T05:02:34.831Z,36.10
2018-06-04T05:03:34.827Z,38.20
2018-06-04T05:04:34.796Z,37.10
2018-06-04T05:05:34.780Z,39.50
2018-06-04T05:06:34.764Z,38.60
2018-06-04T05:07:34.753Z,35.80
2018-06-04T05:08:34.740Z,37.80
2018-06-04T05:09:34.731Z,39.30
2018-06-04T05:10:34.698Z,41.30
2018-06-04T05:11:34.681Z,40.00
2018-06-04T05:12:34.665Z,37.40
2018-06-04T05:13:34.652Z,38.80
2018-06-04T05:14:34.641Z,44.10
2018-06-04T05:15:34.619Z,43.90
2018-06-04T05:16:34.603Z,41.40
2018-06-04T05:17:34.584Z,37.60
2018-06-04T05:18:34.567Z,38.50
2018-06-04T05:19:34.564Z,40.20
2018-06-04T05:20:34.537Z,35.00
2018-06-04T05:21:34.524Z,34.60
2018-06-04T05:22:34.507Z,41.20
2018-06-04T05:23:34.490Z,35.80
2018-06-04T05:24:34.483Z,32.50
2018-06-04T05:25:34.457Z,35.50
2018-06-04T05:26:34.472Z,32.10
2018-06-04T05:27:34.426Z,33.90
2018-06-04T05:28:34.415Z,36.50
2018-06-04T05:29:34.410Z,33.90
2018-06-04T05:30:34.375Z,32.50
2018-06-04T05:31:34.362Z,35.60
2018-06-04T05:32:34.345Z,34.60
2018-06-04T05:33:34.330Z,34.60
2018-06-04T05:34:34.313Z,36.70
2018-06-04T05:35:34.568Z,32.30
2018-06-04T05:36:34.280Z,33.90
2018-06-04T05:37:34.266Z,35.90
2018-06-04T05:38:34.248Z,34.90
2018-06-04T05:39:34.235Z,36.90
2018-06-04T05:40:34.220Z,37.50
2018-06-04T05:41:34.212Z,37.20
2018-06-04T05:42:34.185Z,32.90
2018-06-04T05:43:34.171Z,34.60
2018-06-04T05:44:34.163Z,33.00
2018-06-04T05:45:34.182Z,35.00
2018-06-04T05:46:34.136Z,33.00
2018-06-04T05:47:34.111Z,33.30
2018-06-04T05:48:34.093Z,30.40
2018-06-04T05:49:34.080Z,32.90
2018-06-04T05:50:34.064Z,32.40
2018-06-04T05:51:34.061Z,31.70
2018-06-04T05:52:34.034Z,29.20
2018-06-04T05:53:34.018Z,29.00
2018-06-04T05:54:33.999Z,30.40
2018-06-04T05:55:33.987Z,30.10
2018-06-04T05:56:34.245Z,29.40
2018-06-04T05:57:33.962Z,29.60
2018-06-04T05:58:33.942Z,29.90
2018-06-04T05:59:33.929Z,29.70
2018-06-04T06:00:33.913Z,26.70
2018-06-04T06:01:33.899Z,29.30
2018-06-04T06:02:33.892Z,28.60
2018-06-04T06:03:33.872Z,28.50
2018-06-04T06:04:33.856Z,29.10
2018-06-04T06:05:33.840Z,26.90
2018-06-04T06:06:33.831Z,26.60
2018-06-04T06:07:33.826Z,27.80
2018-06-04T06:08:33.797Z,25.80
2018-06-04T06:09:33.784Z,29.50
2018-06-04T06:10:33.768Z,26.60
2018-06-04T06:11:33.760Z,24.90
2018-06-04T06:12:33.739Z,25.80
2018-06-04T06:13:33.743Z,29.70
2018-06-04T06:14:33.711Z,29.70
2018-06-04T06:15:33.697Z,26.10
2018-06-04T06:16:33.685Z,32.40
2018-06-04T06:17:33.670Z,25.90
2018-06-04T06:18:33.671Z,26.90
2018-06-04T06:19:33.645Z,26.20
2018-06-04T06:20:33.629Z,27.00
2018-06-04T06:21:33.616Z,27.10
2018-06-04T06:22:33.600Z,27.10
2018-06-04T06:23:33.592Z,24.50
2018-06-04T06:24:33.585Z,25.80
2018-06-04T06:25:33.561Z,24.50
2018-06-04T06:26:33.550Z,25.80
2018-06-04T06:27:33.534Z,28.90
2018-06-04T06:28:33.533Z,25.10
2018-06-04T06:29:33.508Z,24.40
2018-06-04T06:30:33.493Z,26.30
2018-06-04T06:31:33.482Z,25.20
2018-06-04T06:32:33.469Z,26.10
2018-06-04T06:33:33.457Z,24.40
2018-06-04T06:34:33.451Z,24.10
2018-06-04T06:35:33.428Z,23.80
2018-06-04T06:36:33.426Z,22.90
2018-06-04T06:37:33.403Z,24.00
2018-06-04T06:38:33.390Z,26.30
2018-06-04T06:39:33.388Z,25.10
2018-06-04T06:40:33.369Z,25.20
2018-06-04T06:41:33.356Z,23.80
2018-06-04T06:42:33.339Z,23.70
2018-06-04T06:43:33.325Z,24.80
2018-06-04T06:44:33.314Z,24.40
2018-06-04T06:45:33.309Z,23.80
2018-06-04T06:46:33.286Z,22.80
2018-06-04T06:47:33.279Z,22.80
2018-06-04T06:48:33.266Z,23.60
2018-06-04T06:49:33.248Z,23.40
2018-06-04T06:50:33.251Z,22.30
2018-06-04T06:51:33.224Z,22.60
2018-06-04T06:52:33.212Z,22.20
2018-06-04T06:53:33.198Z,24.70
2018-06-04T06:54:33.186Z,22.00
2018-06-04T06:55:33.175Z,22.50
2018-06-04T06:56:33.177Z,22.00
2018-06-04T06:57:33.150Z,20.60
2018-06-04T06:58:33.136Z,21.20
2018-06-04T06:59:33.125Z,22.50
2018-06-04T07:00:33.113Z,21.20
2018-06-04T07:01:33.110Z,19.60
2018-06-04T07:02:33.090Z,20.20
2018-06-04T07:03:33.078Z,18.60
2018-06-04T07:04:33.063Z,18.50
2018-06-04T07:05:33.052Z,19.50
2018-06-04T07:06:33.059Z,18.70
2018-06-04T07:07:33.040Z,17.80
2018-06-04T07:08:33.019Z,19.10
2018-06-04T07:09:33.003Z,18.50
2018-06-04T07:10:32.992Z,20.30
2018-06-04T07:11:32.977Z,19.60
2018-06-04T07:12:32.982Z,18.80
2018-06-04T07:13:32.962Z,19.50
2018-06-04T07:14:32.949Z,21.30
2018-06-04T07:15:32.933Z,18.70
2018-06-04T07:16:32.920Z,17.90
2018-06-04T07:17:32.908Z,18.50
2018-06-04T07:18:32.908Z,19.30
2018-06-04T07:19:32.881Z,17.80
2018-06-04T07:20:32.873Z,18.20
2018-06-04T07:21:32.860Z,19.00
2018-06-04T07:22:32.849Z,18.20
2018-06-04T07:23:32.847Z,18.30
2018-06-04T07:24:32.828Z,18.00
2018-06-04T07:25:32.814Z,18.10
2018-06-04T07:26:32.802Z,18.20
2018-06-04T07:27:32.790Z,18.90
2018-06-04T07:28:32.794Z,18.70
2018-06-04T07:29:32.768Z,18.50
2018-06-04T07:30:32.757Z,17.30
2018-06-04T07:31:32.746Z,18.50
2018-06-04T07:32:32.730Z,17.80
2018-06-04T07:33:32.737Z,17.10
2018-06-04T07:34:32.708Z,17.70
2018-06-04T07:35:32.700Z,17.70
2018-06-04T07:36:32.696Z,17.80
2018-06-04T07:37:32.674Z,17.60
2018-06-04T07:38:32.661Z,18.00
2018-06-04T07:39:32.663Z,16.70
2018-06-04T07:40:32.639Z,17.80
2018-06-04T07:41:32.627Z,17.50
2018-06-04T07:42:32.614Z,17.20
2018-06-04T07:43:32.603Z,17.00
2018-06-04T07:44:32.637Z,16.60
2018-06-04T07:45:32.591Z,16.30
2018-06-04T07:46:32.571Z,16.70
2018-06-04T07:47:32.560Z,17.00
2018-06-04T07:48:32.546Z,17.50
2018-06-04T07:49:32.535Z,15.80
2018-06-04T07:50:32.532Z,16.10
2018-06-04T07:51:32.509Z,16.10
2018-06-04T07:52:32.499Z,16.00
2018-06-04T07:53:32.488Z,16.10
2018-06-04T07:54:32.473Z,16.30
2018-06-04T07:55:32.475Z,15.70
2018-06-04T07:56:32.448Z,15.50
2018-06-04T07:57:32.439Z,15.70
2018-06-04T07:58:32.425Z,16.30
2018-06-04T07:59:32.414Z,16.30
2018-06-04T08:00:32.420Z,16.40
2018-06-04T08:01:32.393Z,15.20
2018-06-04T08:02:32.379Z,15.30
2018-06-04T08:03:32.367Z,16.80
2018-06-04T08:04:32.354Z,14.50
2018-06-04T08:05:32.342Z,15.50
2018-06-04T08:06:32.394Z,16.40
2018-06-04T08:07:32.323Z,16.90
2018-06-04T08:08:32.306Z,15.30
2018-06-04T08:09:32.296Z,16.00
2018-06-04T08:10:32.283Z,17.30
2018-06-04T08:11:32.273Z,15.80
2018-06-04T08:12:32.269Z,15.10
2018-06-04T08:13:32.249Z,17.30
2018-06-04T08:14:32.239Z,16.00
2018-06-04T08:15:32.221Z,16.20
2018-06-04T08:16:32.210Z,16.30
2018-06-04T08:17:32.209Z,15.30
2018-06-04T08:18:32.185Z,15.20
2018-06-04T08:19:32.174Z,15.60
2018-06-04T08:20:32.170Z,15.40
2018-06-04T08:21:32.148Z,15.30
2018-06-04T08:22:32.152Z,14.50
2018-06-04T08:23:32.128Z,15.90
2018-06-04T08:24:32.117Z,14.90
2018-06-04T08:25:32.105Z,14.50
2018-06-04T08:26:32.093Z,14.20
2018-06-04T08:27:32.080Z,14.10
2018-06-04T08:28:32.090Z,13.80
2018-06-04T08:29:32.057Z,14.40
2018-06-04T08:30:32.048Z,15.60
2018-06-04T08:31:32.034Z,13.60
2018-06-04T08:32:32.025Z,14.40
2018-06-04T08:33:32.010Z,13.20
2018-06-04T08:34:32.007Z,13.50
2018-06-04T08:35:31.988Z,13.00
2018-06-04T08:36:31.979Z,13.40
2018-06-04T08:37:31.962Z,12.60
2018-06-04T08:38:32.001Z,13.20
2018-06-04T08:39:31.948Z,12.70
2018-06-04T08:40:31.925Z,13.40
2018-06-04T08:41:31.916Z,13.30
2018-06-04T08:42:31.909Z,13.70
2018-06-04T08:43:31.893Z,12.30
2018-06-04T08:44:31.893Z,12.40
2018-06-04T08:45:31.883Z,12.70
2018-06-04T08:46:31.857Z,13.10
2018-06-04T08:47:31.845Z,12.80
2018-06-04T08:48:31.833Z,13.00
2018-06-04T08:49:31.825Z,12.30
2018-06-04T08:50:31.823Z,12.40
2018-06-04T08:51:31.798Z,12.40
2018-06-04T08:52:31.787Z,13.20
2018-06-04T08:53:31.775Z,13.30
2018-06-04T08:54:31.762Z,13.40
2018-06-04T08:55:31.766Z,13.50
2018-06-04T08:56:31.744Z,14.50
2018-06-04T08:57:31.736Z,13.80
2018-06-04T08:58:31.718Z,13.40
2018-06-04T08:59:31.711Z,13.10
2018-06-04T09:00:31.693Z,13.00
2018-06-04T09:01:31.700Z,12.60
2018-06-04T09:02:31.672Z,11.70
2018-06-04T09:03:31.660Z,12.20
2018-06-04T09:04:31.648Z,13.10
2018-06-04T09:05:31.640Z,12.40
2018-06-04T09:06:31.634Z,12.50
2018-06-04T09:07:31.615Z,12.50
2018-06-04T09:08:31.606Z,12.10
2018-06-04T09:09:31.592Z,12.60
2018-06-04T09:10:31.581Z,11.50
2018-06-04T09:11:31.583Z,12.70
2018-06-04T09:12:31.559Z,13.10
2018-06-04T09:13:31.545Z,13.30
2018-06-04T09:14:31.533Z,13.60
2018-06-04T09:15:31.524Z,12.00
2018-06-04T09:16:31.512Z,11.90
2018-06-04T09:17:31.512Z,11.30
2018-06-04T09:18:31.486Z,10.70
2018-06-04T09:19:31.480Z,11.20
2018-06-04T09:20:31.469Z,11.40
2018-06-04T09:21:31.456Z,11.40
2018-06-04T09:22:31.466Z,10.60
2018-06-04T09:23:31.433Z,10.10
2018-06-04T09:24:31.423Z,9.60
2018-06-04T09:25:31.412Z,9.50
2018-06-04T09:26:31.403Z,9.70
2018-06-04T09:27:31.395Z,9.30
2018-06-04T09:28:31.388Z,10.20
2018-06-04T09:29:31.372Z,9.40
2018-06-04T09:30:31.357Z,9.70
2018-06-04T09:31:31.344Z,9.00
2018-06-04T09:32:31.333Z,9.20
2018-06-04T09:33:31.333Z,10.50
2018-06-04T09:34:31.312Z,9.50
2018-06-04T09:35:31.308Z,9.30
2018-06-04T09:36:31.297Z,9.20
2018-06-04T09:37:31.280Z,11.50
2018-06-04T09:38:31.283Z,9.50
2018-06-04T09:39:31.258Z,9.50
2018-06-04T09:40:31.245Z,10.00
2018-06-04T09:41:31.237Z,9.80
2018-06-04T09:42:31.229Z,8.90
2018-06-04T09:43:31.213Z,9.50
2018-06-04T09:44:31.214Z,9.60
2018-06-04T09:45:31.190Z,9.60
2018-06-04T09:46:31.179Z,9.30
2018-06-04T09:47:31.210Z,9.10
2018-06-04T09:48:31.159Z,9.40
2018-06-04T09:49:31.165Z,8.80
2018-06-04T09:50:31.138Z,8.80
2018-06-04T09:51:31.129Z,8.30
2018-06-04T09:52:31.121Z,8.80
2018-06-04T09:53:31.108Z,10.20
2018-06-04T09:54:31.096Z,8.70
2018-06-04T09:55:31.097Z,8.90
2018-06-04T09:56:31.076Z,12.00
2018-06-04T09:57:31.065Z,8.90
2018-06-04T09:58:31.054Z,8.60
2018-06-04T09:59:31.042Z,8.60
2018-06-04T10:00:31.051Z,9.40
2018-06-04T10:01:31.030Z,11.00
2018-06-04T10:02:31.012Z,8.50
2018-06-04T10:03:31.003Z,9.50
2018-06-04T10:04:30.990Z,8.20
2018-06-04T10:05:30.987Z,8.30
2018-06-04T10:06:30.983Z,9.10
2018-06-04T10:07:30.961Z,8.60
2018-06-04T10:08:30.969Z,8.80
2018-06-04T10:09:30.942Z,8.30
2018-06-04T10:10:30.929Z,8.30
2018-06-04T10:11:30.931Z,8.50
2018-06-04T10:12:30.907Z,8.40
2018-06-04T10:13:30.902Z,8.90
2018-06-04T10:14:30.890Z,9.50
2018-06-04T10:15:30.878Z,9.10
2018-06-04T10:16:30.888Z,8.50
2018-06-04T10:17:30.859Z,10.60
2018-06-04T10:18:30.849Z,9.00
2018-06-04T10:19:30.839Z,9.50
2018-06-04T10:20:30.828Z,8.80
2018-06-04T10:21:30.818Z,8.30
2018-06-04T10:22:30.821Z,8.50
2018-06-04T10:23:30.799Z,9.50
2018-06-04T10:24:30.786Z,8.90
2018-06-04T10:25:30.778Z,8.60
2018-06-04T10:26:30.767Z,8.50
2018-06-04T10:27:30.775Z,8.70
2018-06-04T10:28:30.746Z,9.00
2018-06-04T10:29:30.736Z,8.10
2018-06-04T10:30:30.729Z,8.10
2018-06-04T10:31:30.718Z,8.10
2018-06-04T10:32:30.707Z,7.80
2018-06-04T10:33:30.715Z,8.50
2018-06-04T10:34:30.687Z,8.40
2018-06-04T10:35:30.679Z,8.60
2018-06-04T10:36:30.665Z,8.00
2018-06-04T10:37:30.661Z,8.00
2018-06-04T10:38:30.661Z,8.50
2018-06-04T10:39:30.642Z,8.00
2018-06-04T10:40:30.687Z,8.40
2018-06-04T10:41:30.619Z,7.90
2018-06-04T10:42:30.612Z,7.90
2018-06-04T10:43:30.598Z,8.00
2018-06-04T10:44:30.598Z,8.40
2018-06-04T10:45:30.575Z,8.70
2018-06-04T10:46:30.612Z,9.00
2018-06-04T10:47:30.556Z,8.30
2018-06-04T10:48:30.548Z,8.90
2018-06-04T10:49:30.548Z,8.30
2018-06-04T10:50:30.527Z,7.80
2018-06-04T10:51:30.519Z,8.00
2018-06-04T10:52:30.513Z,8.50
2018-06-04T10:53:30.499Z,7.50
2018-06-04T10:54:30.503Z,8.00
2018-06-04T10:55:30.482Z,7.90
2018-06-04T10:56:30.469Z,8.30
2018-06-04T10:57:30.465Z,9.00
2018-06-04T10:58:30.450Z,8.30
2018-06-04T10:59:30.450Z,8.30
2018-06-04T11:00:30.443Z,8.00
2018-06-04T11:01:30.422Z,7.90
2018-06-04T11:02:30.411Z,9.30
2018-06-04T11:03:30.403Z,8.00
2018-06-04T11:04:30.395Z,7.60
2018-06-04T11:05:30.401Z,8.30
2018-06-04T11:06:30.375Z,8.00
2018-06-04T11:07:30.365Z,7.90
2018-06-04T11:08:30.362Z,7.40
2018-06-04T11:09:30.347Z,9.00
2018-06-04T11:10:30.337Z,7.70
2018-06-04T11:11:30.337Z,7.50
2018-06-04T11:12:30.317Z,7.60
2018-06-04T11:13:30.308Z,7.20
2018-06-04T11:14:30.296Z,7.10
2018-06-04T11:15:30.286Z,7.40
2018-06-04T11:16:30.286Z,7.30
2018-06-04T11:17:30.269Z,6.80
2018-06-04T11:18:30.261Z,7.10
2018-06-04T11:19:30.248Z,8.20
2018-06-04T11:20:30.241Z,7.50
2018-06-04T11:21:30.249Z,6.90
2018-06-04T11:22:30.222Z,7.00
2018-06-04T11:23:30.209Z,6.50
2018-06-04T11:24:30.200Z,6.50
2018-06-04T11:25:30.193Z,6.10
2018-06-04T11:26:30.182Z,6.30
2018-06-04T11:27:30.180Z,6.70
2018-06-04T11:28:30.165Z,5.60
2018-06-04T11:29:30.151Z,5.00
2018-06-04T11:30:30.216Z,5.50
2018-06-04T11:31:30.134Z,5.50
2018-06-04T11:32:30.138Z,4.60
2018-06-04T11:33:30.115Z,4.70
2018-06-04T11:34:30.114Z,4.70
2018-06-04T11:35:30.095Z,4.70
2018-06-04T11:36:30.089Z,5.40
2018-06-04T11:37:30.084Z,5.20
2018-06-04T11:38:30.078Z,6.20
2018-06-04T11:39:30.060Z,5.10
2018-06-04T11:40:30.054Z,7.10
2018-06-04T11:41:30.044Z,5.60
2018-06-04T11:42:30.031Z,6.70
2018-06-04T11:43:30.035Z,5.90
2018-06-04T11:44:30.022Z,5.70
2018-06-04T11:45:30.005Z,6.10
2018-06-04T11:46:30.000Z,5.70
2018-06-04T11:47:29.985Z,6.10
2018-06-04T11:48:29.977Z,4.50
2018-06-04T11:49:29.983Z,4.00
2018-06-04T11:50:29.961Z,4.30
2018-06-04T11:51:29.953Z,3.60
2018-06-04T11:52:29.945Z,4.60
2018-06-04T11:53:29.934Z,4.30
2018-06-04T11:54:30.183Z,5.00
2018-06-04T11:55:29.918Z,5.80
2018-06-04T11:56:29.935Z,4.40
2018-06-04T11:57:29.899Z,4.90
2018-06-04T11:58:29.891Z,4.60
2018-06-04T11:59:29.881Z,4.60
2018-06-04T12:00:29.887Z,4.60
2018-06-04T12:01:29.869Z,5.40
2018-06-04T12:02:29.854Z,5.00
2018-06-04T12:03:29.846Z,5.10
2018-06-04T12:04:29.841Z,5.00
2018-06-04T12:05:29.840Z,5.50
2018-06-04T12:06:29.821Z,6.00
2018-06-04T12:07:29.815Z,6.20
2018-06-04T12:08:29.804Z,5.50
2018-06-04T12:09:29.797Z,5.70
2018-06-04T12:10:29.798Z,5.60
2018-06-04T12:11:29.875Z,5.00
2018-06-04T12:12:29.770Z,5.80
2018-06-04T12:13:29.762Z,7.30
2018-06-04T12:14:29.757Z,7.10
2018-06-04T12:15:29.746Z,5.40
2018-06-04T12:16:29.743Z,5.30
2018-06-04T12:17:29.778Z,6.30
2018-06-04T12:18:29.721Z,5.30
2018-06-04T12:19:29.710Z,5.70
2018-06-04T12:20:29.707Z,5.20
2018-06-04T12:21:29.710Z,5.70
2018-06-04T12:22:29.687Z,5.40
2018-06-04T12:23:29.677Z,5.60
2018-06-04T12:24:29.672Z,5.80
2018-06-04T12:25:29.661Z,5.60
2018-06-04T12:26:29.655Z,5.30
2018-06-04T12:27:29.660Z,5.80
2018-06-04T12:28:29.637Z,5.70
2018-06-04T12:29:29.626Z,6.70
2018-06-04T12:30:29.617Z,5.70
2018-06-04T12:31:29.619Z,5.20
2018-06-04T12:32:29.618Z,5.40
2018-06-04T12:33:29.596Z,8.80
2018-06-04T12:34:29.589Z,5.40
2018-06-04T12:35:29.578Z,6.00
2018-06-04T12:36:29.569Z,5.30
2018-06-04T12:37:29.563Z,5.30
2018-06-04T12:38:29.561Z,5.10
2018-06-04T12:39:29.544Z,5.50
2018-06-04T12:40:29.538Z,5.40
2018-06-04T12:41:29.530Z,5.30
2018-06-04T12:42:29.529Z,5.00
2018-06-04T12:43:29.529Z,5.00
2018-06-04T12:44:29.506Z,4.80
2018-06-04T12:45:29.499Z,4.80
2018-06-04T12:46:29.488Z,4.70
2018-06-04T12:47:29.481Z,4.70
2018-06-04T12:48:29.473Z,4.40
2018-06-04T12:49:29.483Z,4.50
2018-06-04T12:50:29.457Z,4.80
2018-06-04T12:51:29.448Z,4.20
2018-06-04T12:52:29.441Z,4.10
2018-06-04T12:53:29.433Z,4.30
2018-06-04T12:54:29.436Z,5.80
2018-06-04T12:55:29.415Z,4.90
2018-06-04T12:56:29.408Z,4.60
2018-06-04T12:57:29.401Z,5.20
2018-06-04T12:58:29.392Z,5.10
2018-06-04T12:59:29.399Z,4.70